Joseph Barnes

Scout - Manchester United
20 Feb 2028
Sunday
Process

Personality

Adaptability (3) Ambition (14) Controversy (12) Loyalty (17) Pressure (3) Professionalism (5) Sportsmanship (10) Temperament (11)

Profile

Coaching Style Democratic
License Continental C
Determination 14
Man Management 11
Motivating 9
Discipline 16
Job Satisfaction
100%
Fatigue
0%
Role Scout
Wage 76.0K p/w
Contract 14.03.2030

Performance

Behaviour Good
Training Effectiveness
50%
Player Development
70%
Injury Prevention
55%
Tactical Implementation
50%

Recent Events

Attended a recruitment meeting now
Attended a recruitment meeting 7d ago
Recommended a transfer target 7d ago
Attended a recruitment meeting 7d ago
Attended a recruitment meeting 14d ago
Recommended a transfer target 14d ago
Attended a recruitment meeting 14d ago
Presented a dossier to the board 14d ago

Currently Monitoring

78
Player Club Status Ability Confidence Watched Last Observed Latest Vote
Alexis Vossah FC Nantes Active 121 / 138 40% 1 31.01.2028 -
Christos Mouzakitis Hull City Active 136 / 150 40% 1 31.01.2028 -
Jorrel Hato Chelsea Active 151 / 162 40% 1 31.01.2028 -
Dango Ouattara Brentford Lost 151 / 158 93% 1 17.01.2028 Approve
Assane Diao Lazio Active 152 / 152 40% 6 10.01.2028 -
Benjamin Šeško Arsenal Negotiating 156 / 164 40% 1 10.01.2028 -
Jayden Danns Wigan Athletic Active 138 / 143 40% 1 10.01.2028 -
Trai Hume Sunderland Active 138 / 144 93% 1 02.01.2028 Approve
Roméo Lavia Blackburn Rovers Active 153 / 157 40% 1 31.12.2027 -
Habib Diarra Sunderland Active 147 / 154 40% 1 31.12.2027 -
Ludovico Del Sorbo Luton Town Active 125 / 128 30% 1 / 1m 08.12.2027 -
Jack Porter Burton Albion Active 113 / 123 30% 1 / 1m 27.10.2027 -
Ricardo Pepi Chelsea Active 145 / 153 40% 3 23.08.2027 -
Yeremy Pino Crystal Palace Active 155 / 160 40% 3 09.08.2027 -
Francisco Conceição Juventus Active 164 / 157 40% 3 09.08.2027 -
Kwadwo Baah Watford Active 135 / 123 40% 1 09.08.2027 -
Jack McGlynn Stoke City Active 135 / 138 40% 1 21.07.2027 -
Kenan Yıldız Juventus Active 164 / 159 40% 10 20.07.2027 -
Toby Collyer West Bromwich Albion Active 134 / 130 40% 1 20.07.2027 -
Isaac Price West Bromwich Albion Active 132 / 135 40% 2 19.07.2027 -
Morgan Rogers Chelsea Active 165 / 161 40% 4 14.07.2027 -
Juanlu Bournemouth Active 151 / 146 40% 1 14.07.2027 -
Matías Soulé AS Roma Active 161 / 165 40% 1 12.07.2027 -
Tom Fellows Southampton Active 132 / 126 40% 1 05.07.2027 -
Yehor Yarmoliuk Brentford Active 152 / 157 40% 1 05.07.2027 -
Mohammed Kudus Tottenham Lost 163 / 157 40% 1 22.06.2027 -
Nico González Newcastle United Active 164 / 162 40% 29 14.06.2027 -
Gabriel Arsenal Active 172 / 171 40% 19 30.05.2027 -
Adrien Truffert Bournemouth Active 151 / 149 40% 4 30.05.2027 -
Levi Colwill Chelsea Active 159 / 163 40% 24 29.05.2027 -
Tyler Adams Bournemouth Active 155 / 159 40% 6 28.05.2027 -
William Saliba Arsenal Active 178 / 169 40% 12 27.05.2027 -
Jan Paul van Hecke Tottenham Active 155 / 147 40% 11 27.05.2027 -
Amadou Onana Aston Villa Active 158 / 156 40% 6 27.05.2027 -
Khéphren Thuram Aston Villa Active 156 / 161 40% 1 27.05.2027 -
Tino Livramento Newcastle United Active 155 / 168 40% 3 25.05.2027 -
Gonzalo Fulham Active 143 / 139 40% 1 25.05.2027 -
Jurriën Timber Arsenal Active 163 / 153 40% 12 24.05.2027 -
Jakub Kiwior Everton Active 157 / 167 40% 1 24.05.2027 -
Felipe Augusto Zenit Active 134 / 139 40% 5 21.05.2027 -
Hector Ramirez Newcastle United Active 156 / 151 40% 23 20.05.2027 -
Moisés Caicedo Chelsea Active 173 / 175 40% 5 20.05.2027 -
Benjamin White Arsenal Active 158 / 167 40% 11 19.05.2027 -
Sandro Tonali Tottenham Lost 173 / 162 40% 13 16.05.2027 -
Xaver Schlager Nottingham Forest Active 152 / 144 40% 5 12.05.2027 -
Pedro Porro Tottenham Active 151 / 140 40% 1 12.05.2027 -
Francesco Pio Esposito Inter Active 143 / 143 40% 4 10.05.2027 -
Quinten Timber Crystal Palace Active 152 / 154 40% 7 08.05.2027 -
Curtis Jones Inter Active 157 / 152 40% 7 04.05.2027 -
Stefanos Tzimas Brighton Active 136 / 144 40% 2 02.05.2027 -
Jarrad Branthwaite Everton Active 151 / 148 40% 13 30.04.2027 -
Franculino Crystal Palace Active 137 / 150 40% 2 26.04.2027 -
Declan Rice Arsenal Active 183 / 180 40% 3 25.04.2027 -
Leon Goretzka Aston Villa Active 155 / 160 40% 13 23.04.2027 -
Bruno Guimarães Arsenal Active 170 / 167 40% 7 15.04.2027 -
Pablo Felipe West Ham United Active 132 / 146 40% 1 11.04.2027 -
Yoan Bonny Inter Active 146 / 146 40% 2 10.04.2027 -
Exequiel Zeballos Fiorentina Active 133 / 136 40% 2 30.03.2027 -
Santiago Castro AS Roma Active 146 / 142 40% 1 23.03.2027 -
Ian Maatsen Aston Villa Active 149 / 149 40% 8 18.03.2027 -
Manfred Ugalde Spartak Moscow Active 131 / 126 40% 1 12.03.2027 -
Antonee Robinson Fulham Active 152 / 152 40% 1 10.03.2027 -
Ruben van Bommel Ferencvaros Active 132 / 131 40% 1 07.03.2027 -
Reece James Chelsea Active 175 / 163 40% 7 05.03.2027 -
Andrew Robertson Tottenham Active 151 / 150 40% 2 17.02.2027 -
Micky van de Ven Tottenham Active 157 / 157 40% 1 05.02.2027 -
Murillo Nottingham Forest Active 153 / 161 40% 14 24.12.2026 -
Dušan Vlahović Juventus Active 162 / 154 40% 5 22.12.2026 Monitor
Nicolò Rovella Lazio Active 149 / 142 40% 5 24.11.2026 -
Federico Dimarco Inter Active 164 / 167 40% 1 23.11.2026 -
Mikel Merino Arsenal Lost 157 / 153 40% 2 22.11.2026 -
Mark O'Mahony Brighton Active 98 / 103 30% 1 / 1m 28.10.2026 -
Prosper Peter Angers SCO Active 113 / 118 30% 1 / 1m 28.10.2026 -
Luke Harris Fulham Active 115 / 120 30% 1 / 1m 28.10.2026 -
Fabián Paris Saint-Germain Active 166 / 174 40% 1 23.10.2026 -
Gabriel Martinelli Brighton Active 162 / 160 40% 1 20.10.2026 -
Stanislav Lobotka Galatasaray Active 158 / 172 40% 2 20.09.2026 -
Nathan Paul-Lavaly Bromley Active 62 / 67 30% 1 / 1m 16.09.2026 -